リーブルヴィル の空港の天気 - METARとTAF

リーブルヴィル国際空港 ( FOOL / LBV ) - ガボン リーブルヴィル
飛行場実況気象(Metar)
観測時間07/16 07:00 WAT (07/16 06:00 UTC)
風向・風速南 6m/s
視程10km以上
天気現象
少しの雲 雲底高度 370m
全天の8割程度の雲 雲底高度 730m
気温24℃
湿度83%
気圧1015hPa
METARFOOL 160600Z 17012KT 9999 FEW012 BKN024 24/21 Q1015 NOSIG
過去の天気等 Google飛行場航空写真 Wunderground天気予報

過去48時間のMETAR

飛行場予報(TAF)
発表時間: 7/16 06:00 WAT (7/16 05:00 UTC)
予報対象時間: 16日7時 WAT ~ 17日13時 WAT
風向・風速南南東 4m/s
視程10km以上
全天の4割程度の雲 雲底高度 400m
全天の8割程度の雲 雲底高度 790m
TAF FOOL 160500Z 1606/1712 16008KT 9999 SCT013 BKN026